Latest Coastal Weather Observations for Port Kembla Harbour

IDN60701

Issued at 4:32 pm EDT Thursday 25 February 2021 (issued every 10 minutes, with the page automatically refreshed every 10 minutes)

About coastal observations | Map of coastal stations | Coastal observations for NSW | Marine services | Other Formats
Station Details ID: 068253 Name: PORT KEMBLA NTC AWS Lat: -34.47 Lon: 150.91 Height: 0.0 m
Data from the previous 72 hours. | See also: Recent months for locations in New South Wales
Date/Time
EDT
Wind Sea
Height
m
Swell Vis
km
Cloud Weather Temp
°C
Press
MSL
hPa
Rain since
9am
mm
Dir  Spd
kts
Gust
kts
Height
m
Period
s
Dir
25/04:30pm N 12 17 - - - - - - - 21.4 1007.9 -
25/04:00pm N 11 17 - - - - - - - 20.6 1008.1 -
25/03:30pm NNE 11 15 - - - - - - - 21.9 1008.2 -
25/03:00pm NE 11 17 - - - - - - - 21.1 1008.7 -
25/02:48pm NE 9 15 - - - - - - - 20.3 1008.2 -
25/02:30pm N 8 12 - - - - - - - 20.5 1010.3 -
25/02:00pm WNW 5 7 - - - - - - - 21.0 1009.7 -
25/01:30pm WSW 7 11 - - - - - - - 20.9 1009.8 -
25/01:00pm E 4 13 - - - - - - - 20.5 1010.1 -
25/12:30pm WSW 4 7 - - - - - - - 19.9 1010.9 -
25/12:00pm WSW 5 9 - - - - - - - 20.6 1012.0 -
25/11:30am NNW 3 5 - - - - - - - 22.0 1011.7 -
25/11:00am ENE 5 7 - - - - - - - 21.3 1010.8 -
25/10:30am ESE 3 5 - - - - - - - 21.4 1011.1 -
25/10:00am ESE 2 4 - - - - - - - 21.9 1010.9 -
25/09:30am NW 4 5 - - - - - - - 21.9 1010.9 -
25/09:00am NW 2 5 - - - - - - - 21.4 1010.7 -
25/08:30am W 4 6 - - - - - - - 20.6 1010.6 -
25/08:00am NNW 4 6 - - - - - - - 20.2 1010.7 -
25/07:30am WNW 4 6 - - - - - - - 20.6 1010.2 -
25/07:00am NW 6 7 - - - - - - - 20.6 1010.3 -
25/06:30am NNW 5 6 - - - - - - - 20.7 1010.2 -
25/06:00am NNW 3 5 - - - - - - - 20.4 1010.1 -
25/05:30am N 4 6 - - - - - - - 20.5 1010.3 -
25/05:00am N 5 7 - - - - - - - 20.6 1010.5 -
25/04:30am W 3 5 - - - - - - - 19.6 1010.5 -
25/04:00am SSW 1 1 - - - - - - - 18.8 1010.9 -
25/03:30am S 2 4 - - - - - - - 18.8 1011.2 -
25/03:00am SW 3 5 - - - - - - - 18.9 1011.4 -
25/02:30am WSW 4 5 - - - - - - - 18.9 1011.8 -
25/02:00am WSW 4 6 - - - - - - - 19.0 1012.4 -
25/01:30am WSW 4 5 - - - - - - - 19.1 1013.0 -
25/01:00am SW 2 3 - - - - - - - 19.2 1013.7 -
25/12:30am SW 1 2 - - - - - - - 19.7 1014.0 -
25/12:00am S 3 5 - - - - - - - 19.4 1014.0 -
 
Date/Time
EDT
Wind Sea
Height
m
Swell Vis
km
Cloud Weather Temp
°C
Press
MSL
hPa
Rain since
9am
mm
Dir  Spd
kts
Gust
kts
Height
m
Period
s
Dir
24/11:30pm S 2 3 - - - - - - - 19.5 1014.5 -
24/11:00pm SE 4 7 - - - - - - - 19.6 1014.7 -
24/10:30pm NNW 1 3 - - - - - - - 19.7 1015.0 -
24/10:00pm W 1 3 - - - - - - - 19.6 1015.1 -
24/09:30pm WSW 2 3 - - - - - - - 20.1 1015.3 -
24/09:00pm CALM 0 1 - - - - - - - 19.9 1015.0 -
24/08:30pm S 1 2 - - - - - - - 20.1 1015.1 -
24/08:00pm S 2 3 - - - - - - - 20.2 1015.1 -
24/07:30pm SW 4 6 - - - - - - - 20.3 1015.0 -
24/07:00pm S 4 8 - - - - - - - 20.2 1014.9 -
24/06:30pm SSW 5 8 - - - - - - - 20.0 1015.1 -
24/06:00pm SSW 4 9 - - - - - - - 20.2 1015.1 -
24/05:30pm SSW 6 13 - - - - - - - 20.2 1015.3 -
24/05:00pm SW 8 11 - - - - - - - 20.2 1015.2 -
24/04:30pm SW 8 12 - - - - - - - 20.0 1015.4 -
24/04:00pm SSW 6 11 - - - - - - - 20.2 1015.4 -
24/03:30pm SSW 7 12 - - - - - - - 19.9 1016.0 -
24/03:00pm SW 8 12 - - - - - - - 19.4 1016.5 -
24/02:30pm SSW 7 15 - - - - - - - 19.8 1016.9 -
24/02:00pm SW 7 12 - - - - - - - 20.3 1017.2 -
24/01:30pm SSW 7 15 - - - - - - - 19.6 1017.5 -
24/01:00pm SW 7 11 - - - - - - - 19.9 1017.6 -
24/12:30pm SW 8 12 - - - - - - - 19.2 1018.2 -
24/12:00pm WSW 10 13 - - - - - - - 18.8 1018.5 -
24/11:30am WSW 8 12 - - - - - - - 18.8 1018.6 -
24/11:00am WSW 8 11 - - - - - - - 18.1 1018.8 -
24/10:30am SW 10 13 - - - - - - - 18.2 1018.7 -
24/10:00am SW 9 15 - - - - - - - 18.2 1018.7 -
24/09:30am SW 7 10 - - - - - - - 17.9 1018.3 -
24/09:00am SW 8 10 - - - - - - - 17.4 1018.2 -
24/08:30am WSW 7 11 - - - - - - - 17.1 1018.2 -
24/08:00am WSW 7 11 - - - - - - - 16.3 1018.3 -
24/07:30am SW 9 13 - - - - - - - 16.1 1017.9 -
24/07:00am SW 7 10 - - - - - - - 16.1 1017.9 -
24/06:30am SW 8 11 - - - - - - - 16.4 1017.3 -
24/06:00am SW 6 9 - - - - - - - 16.7 1016.9 -
24/05:30am SW 8 12 - - - - - - - 17.8 1016.4 -
24/05:00am SW 7 10 - - - - - - - 17.7 1016.2 -
24/04:30am SW 8 13 - - - - - - - 17.9 1016.3 -
24/04:00am SW 8 11 - - - - - - - 17.8 1016.3 -
24/03:30am SW 8 12 - - - - - - - 18.1 1016.5 -
24/03:00am SW 8 12 - - - - - - - 18.1 1016.5 -
24/02:30am SW 7 11 - - - - - - - 18.9 1016.5 -
24/02:00am WSW 8 11 - - - - - - - 18.3 1016.7 -
24/01:30am WSW 10 15 - - - - - - - 18.4 1017.0 -
24/01:00am SSW 8 15 - - - - - - - 19.8 1017.4 -
24/12:30am SSW 7 15 - - - - - - - 19.7 1017.6 -
24/12:00am SSW 8 19 - - - - - - - 19.9 1017.7 -
 
Date/Time
EDT
Wind Sea
Height
m
Swell Vis
km
Cloud Weather Temp
°C
Press
MSL
hPa
Rain since
9am
mm
Dir  Spd
kts
Gust
kts
Height
m
Period
s
Dir
23/11:30pm S 8 16 - - - - - - - 19.7 1017.7 -
23/11:00pm S 9 17 - - - - - - - 19.6 1017.7 -
23/10:30pm S 9 19 - - - - - - - 19.6 1017.6 -
23/10:00pm SSW 9 20 - - - - - - - 19.4 1017.3 -
23/09:30pm SSW 9 17 - - - - - - - 19.8 1017.1 -
23/09:00pm SSW 10 20 - - - - - - - 19.8 1016.8 -
23/08:30pm S 10 19 - - - - - - - 19.8 1016.5 -
23/08:00pm S 9 20 - - - - - - - 19.8 1016.0 -
23/07:30pm S 10 19 - - - - - - - 19.8 1015.7 -
23/07:00pm SSW 9 21 - - - - - - - 19.9 1015.3 -
23/06:30pm SSW 10 20 - - - - - - - 19.8 1015.0 -
23/06:00pm SSW 9 20 - - - - - - - 19.9 1014.8 -
23/05:30pm S 9 16 - - - - - - - 20.0 1014.5 -
23/05:00pm SSW 10 19 - - - - - - - 20.1 1014.3 -
23/04:30pm SSW 9 18 - - - - - - - 20.0 1014.2 -
23/04:00pm SSW 10 18 - - - - - - - 20.0 1014.1 -
23/03:30pm SSW 7 15 - - - - - - - 20.0 1014.1 -
23/03:00pm SSW 9 17 - - - - - - - 20.0 1014.1 -
23/02:30pm SSW 9 17 - - - - - - - 19.9 1014.1 -
23/02:00pm S 9 19 - - - - - - - 20.0 1014.0 -
23/01:30pm S 8 16 - - - - - - - 19.6 1014.1 -
23/01:00pm SSW 8 14 - - - - - - - 19.3 1014.1 -
23/12:30pm SSW 10 20 - - - - - - - 19.0 1014.3 -
23/12:00pm SSW 8 18 - - - - - - - 19.1 1014.2 -
23/11:30am S 8 16 - - - - - - - 19.0 1014.1 -
23/11:00am SSW 9 17 - - - - - - - 18.9 1014.0 -
23/10:30am SSW 8 17 - - - - - - - 18.7 1013.7 -
23/10:00am SW 10 19 - - - - - - - 18.4 1013.5 -
23/09:30am SW 10 16 - - - - - - - 18.5 1013.1 -
23/09:00am SW 9 14 - - - - - - - 18.5 1012.9 -
23/08:30am SW 11 17 - - - - - - - 18.4 1012.6 -
23/08:00am SW 9 13 - - - - - - - 18.6 1012.1 -
23/07:30am SW 8 13 - - - - - - - 18.9 1011.6 -
23/07:00am SW 8 12 - - - - - - - 19.2 1011.1 -
23/06:30am SW 8 14 - - - - - - - 19.5 1010.8 -
23/06:00am SSW 9 14 - - - - - - - 19.7 1010.5 -
23/05:30am SW 8 13 - - - - - - - 19.5 1010.1 -
23/05:00am SW 7 13 - - - - - - - 19.3 1009.7 -
23/04:30am SW 9 14 - - - - - - - 19.3 1009.5 -
23/04:00am SW 8 13 - - - - - - - 19.4 1009.5 -
23/03:30am SW 8 12 - - - - - - - 19.3 1009.5 -
23/03:00am SW 8 12 - - - - - - - 19.4 1009.3 -
23/02:30am SW 10 15 - - - - - - - 19.8 1009.3 -
23/02:00am SW 7 12 - - - - - - - 20.0 1009.4 -
23/01:30am SW 9 14 - - - - - - - 20.1 1009.5 -
23/01:00am SW 8 12 - - - - - - - 20.1 1009.7 -
23/12:30am SW 9 13 - - - - - - - 20.2 1009.8 -
23/12:00am SW 8 14 - - - - - - - 20.3 1009.9 -
 
Date/Time
EDT
Wind Sea
Height
m
Swell Vis
km
Cloud Weather Temp
°C
Press
MSL
hPa
Rain since
9am
mm
Dir  Spd
kts
Gust
kts
Height
m
Period
s
Dir
22/11:30pm SW 8 14 - - - - - - - 20.0 1009.9 -
22/11:00pm SW 9 15 - - - - - - - 19.8 1010.1 -
22/10:30pm SW 11 20 - - - - - - - 19.5 1010.2 -
22/10:00pm SW 13 21 - - - - - - - 19.5 1010.1 -
22/09:30pm SW 12 19 - - - - - - - 19.2 1010.0 -
22/09:00pm SW 12 18 - - - - - - - 19.1 1009.6 -
22/08:30pm SW 14 22 - - - - - - - 19.3 1009.1 -
22/08:00pm SW 11 18 - - - - - - - 19.7 1008.6 -
22/07:30pm SW 12 20 - - - - - - - 19.9 1007.9 -
22/07:00pm SW 12 20 - - - - - - - 20.4 1007.3 -
22/06:30pm SSW 9 16 - - - - - - - 20.7 1006.8 -
22/06:00pm SSW 10 17 - - - - - - - 21.0 1006.3 -
22/05:30pm SW 9 17 - - - - - - - 21.2 1005.9 -
22/05:00pm SSW 10 19 - - - - - - - 21.4 1005.9 -

Other formats

Comma delimited format used in spreadsheet applications
http://www.bom.gov.au/fwo/IDN60701/IDN60701.95745.axf

JavaScript Object Notation format (JSON) in row-major order
http://www.bom.gov.au/fwo/IDN60701/IDN60701.95745.json

Data quality

Most of these data are generated automatically and are frequently updated. Quality checks on data are not normally performed. It is possible for incorrect values to appear. Refer to information at About Latest Weather Observations and please check the disclaimer before using these data.